sensor_id;sensor_type;location;lat;lon;timestamp;P1;durP1;ratioP1;P2;durP2;ratioP2
3755;SDS011;1893;52.526;13.360;2023-06-14T00:05:15;3.97;;;2.37;;
3755;SDS011;1893;52.526;13.360;2023-06-14T00:07:41;4.17;;;2.27;;
3755;SDS011;1893;52.526;13.360;2023-06-14T00:10:07;3.47;;;3.17;;
3755;SDS011;1893;52.526;13.360;2023-06-14T00:12:33;2.93;;;2.53;;
3755;SDS011;1893;52.526;13.360;2023-06-14T00:15:00;3.53;;;2.40;;
3755;SDS011;1893;52.526;13.360;2023-06-14T00:17:26;2.83;;;2.63;;
3755;SDS011;1893;52.526;13.360;2023-06-14T00:19:55;4.77;;;2.50;;
3755;SDS011;1893;52.526;13.360;2023-06-14T00:22:22;4.50;;;3.00;;
3755;SDS011;1893;52.526;13.360;2023-06-14T00:24:49;6.10;;;3.23;;
3755;SDS011;1893;52.526;13.360;2023-06-14T00:27:18;3.80;;;2.70;;
3755;SDS011;1893;52.526;13.360;2023-06-14T00:29:43;6.13;;;3.53;;
3755;SDS011;1893;52.526;13.360;2023-06-14T00:32:09;5.40;;;2.83;;
3755;SDS011;1893;52.526;13.360;2023-06-14T00:34:35;4.20;;;2.90;;
3755;SDS011;1893;52.526;13.360;2023-06-14T00:37:00;4.17;;;2.40;;
3755;SDS011;1893;52.526;13.360;2023-06-14T00:39:26;3.13;;;2.80;;
3755;SDS011;1893;52.526;13.360;2023-06-14T00:41:52;2.93;;;2.73;;
3755;SDS011;1893;52.526;13.360;2023-06-14T00:44:17;3.57;;;2.93;;
3755;SDS011;1893;52.526;13.360;2023-06-14T00:46:45;3.03;;;2.70;;
3755;SDS011;1893;52.526;13.360;2023-06-14T00:49:11;2.87;;;2.57;;
3755;SDS011;1893;52.526;13.360;2023-06-14T00:51:40;4.00;;;2.80;;
3755;SDS011;1893;52.526;13.360;2023-06-14T00:54:06;4.07;;;2.80;;
3755;SDS011;1893;52.526;13.360;2023-06-14T00:56:32;3.33;;;2.70;;
3755;SDS011;1893;52.526;13.360;2023-06-14T00:58:57;5.80;;;3.53;;
3755;SDS011;1893;52.526;13.360;2023-06-14T01:01:23;3.20;;;2.90;;
3755;SDS011;1893;52.526;13.360;2023-06-14T01:03:49;6.13;;;4.10;;
3755;SDS011;1893;52.526;13.360;2023-06-14T01:06:19;5.53;;;3.60;;
3755;SDS011;1893;52.526;13.360;2023-06-14T01:11:37;4.60;;;3.97;;
3755;SDS011;1893;52.526;13.360;2023-06-14T01:14:17;3.60;;;3.30;;
3755;SDS011;1893;52.526;13.360;2023-06-14T01:16:43;4.10;;;3.77;;
3755;SDS011;1893;52.526;13.360;2023-06-14T01:19:10;4.53;;;3.30;;
3755;SDS011;1893;52.526;13.360;2023-06-14T01:21:38;9.73;;;3.30;;
3755;SDS011;1893;52.526;13.360;2023-06-14T01:24:07;4.13;;;3.33;;
3755;SDS011;1893;52.526;13.360;2023-06-14T01:26:33;4.90;;;4.23;;
3755;SDS011;1893;52.526;13.360;2023-06-14T01:29:02;5.43;;;3.73;;
3755;SDS011;1893;52.526;13.360;2023-06-14T01:31:29;4.77;;;3.50;;
3755;SDS011;1893;52.526;13.360;2023-06-14T01:34:04;4.90;;;4.23;;
3755;SDS011;1893;52.526;13.360;2023-06-14T01:36:30;4.13;;;3.73;;
3755;SDS011;1893;52.526;13.360;2023-06-14T01:38:56;3.60;;;3.30;;
3755;SDS011;1893;52.526;13.360;2023-06-14T01:41:24;3.90;;;3.60;;
3755;SDS011;1893;52.526;13.360;2023-06-14T01:43:51;4.90;;;4.03;;
3755;SDS011;1893;52.526;13.360;2023-06-14T01:46:17;6.53;;;4.50;;
3755;SDS011;1893;52.526;13.360;2023-06-14T01:48:44;5.10;;;4.03;;
3755;SDS011;1893;52.526;13.360;2023-06-14T01:51:10;5.80;;;4.37;;
3755;SDS011;1893;52.526;13.360;2023-06-14T01:53:36;6.20;;;4.83;;
3755;SDS011;1893;52.526;13.360;2023-06-14T01:56:01;4.23;;;3.80;;
3755;SDS011;1893;52.526;13.360;2023-06-14T01:58:28;5.43;;;4.20;;
3755;SDS011;1893;52.526;13.360;2023-06-14T02:00:54;4.93;;;4.43;;
3755;SDS011;1893;52.526;13.360;2023-06-14T02:03:21;4.90;;;4.50;;
3755;SDS011;1893;52.526;13.360;2023-06-14T02:05:48;4.73;;;3.60;;
3755;SDS011;1893;52.526;13.360;2023-06-14T02:08:13;6.10;;;4.20;;
3755;SDS011;1893;52.526;13.360;2023-06-14T02:10:39;6.50;;;4.00;;
3755;SDS011;1893;52.526;13.360;2023-06-14T02:13:05;4.63;;;3.73;;
3755;SDS011;1893;52.526;13.360;2023-06-14T02:15:31;9.57;;;5.00;;
3755;SDS011;1893;52.526;13.360;2023-06-14T02:17:59;10.10;;;5.20;;
3755;SDS011;1893;52.526;13.360;2023-06-14T02:20:26;7.70;;;5.50;;
3755;SDS011;1893;52.526;13.360;2023-06-14T02:22:55;7.73;;;5.20;;
3755;SDS011;1893;52.526;13.360;2023-06-14T02:25:21;5.23;;;4.73;;
3755;SDS011;1893;52.526;13.360;2023-06-14T02:27:47;5.77;;;5.17;;
3755;SDS011;1893;52.526;13.360;2023-06-14T02:30:12;8.73;;;4.67;;
3755;SDS011;1893;52.526;13.360;2023-06-14T02:32:38;5.83;;;5.20;;
3755;SDS011;1893;52.526;13.360;2023-06-14T02:35:05;6.40;;;5.30;;
3755;SDS011;1893;52.526;13.360;2023-06-14T02:37:31;5.97;;;5.27;;
3755;SDS011;1893;52.526;13.360;2023-06-14T02:39:58;4.93;;;4.53;;
3755;SDS011;1893;52.526;13.360;2023-06-14T02:42:24;5.63;;;5.13;;
3755;SDS011;1893;52.526;13.360;2023-06-14T02:44:49;5.07;;;4.57;;
3755;SDS011;1893;52.526;13.360;2023-06-14T02:47:16;5.63;;;4.00;;
3755;SDS011;1893;52.526;13.360;2023-06-14T02:49:45;4.57;;;4.20;;
3755;SDS011;1893;52.526;13.360;2023-06-14T02:52:11;8.47;;;5.37;;
3755;SDS011;1893;52.526;13.360;2023-06-14T02:54:37;6.53;;;5.30;;
3755;SDS011;1893;52.526;13.360;2023-06-14T02:57:02;8.13;;;5.73;;
3755;SDS011;1893;52.526;13.360;2023-06-14T02:59:28;5.37;;;4.40;;
3755;SDS011;1893;52.526;13.360;2023-06-14T03:01:54;5.43;;;4.10;;
3755;SDS011;1893;52.526;13.360;2023-06-14T03:04:20;7.50;;;5.53;;
3755;SDS011;1893;52.526;13.360;2023-06-14T03:06:45;6.80;;;6.10;;
3755;SDS011;1893;52.526;13.360;2023-06-14T03:09:15;5.80;;;4.67;;
3755;SDS011;1893;52.526;13.360;2023-06-14T03:11:41;9.33;;;5.70;;
3755;SDS011;1893;52.526;13.360;2023-06-14T03:14:06;6.77;;;5.60;;
3755;SDS011;1893;52.526;13.360;2023-06-14T03:16:33;10.33;;;5.93;;
3755;SDS011;1893;52.526;13.360;2023-06-14T03:18:59;6.60;;;4.60;;
3755;SDS011;1893;52.526;13.360;2023-06-14T03:21:25;10.03;;;5.53;;
3755;SDS011;1893;52.526;13.360;2023-06-14T03:23:51;8.30;;;5.80;;
3755;SDS011;1893;52.526;13.360;2023-06-14T03:26:17;5.90;;;5.30;;
3755;SDS011;1893;52.526;13.360;2023-06-14T03:28:46;7.57;;;5.50;;
3755;SDS011;1893;52.526;13.360;2023-06-14T03:31:13;6.57;;;5.37;;
3755;SDS011;1893;52.526;13.360;2023-06-14T03:33:40;6.70;;;6.00;;
3755;SDS011;1893;52.526;13.360;2023-06-14T03:36:05;7.53;;;5.40;;
3755;SDS011;1893;52.526;13.360;2023-06-14T03:38:34;7.30;;;5.47;;
3755;SDS011;1893;52.526;13.360;2023-06-14T03:41:00;17.90;;;5.90;;
3755;SDS011;1893;52.526;13.360;2023-06-14T03:43:25;6.73;;;6.00;;
3755;SDS011;1893;52.526;13.360;2023-06-14T03:45:52;7.03;;;5.90;;
3755;SDS011;1893;52.526;13.360;2023-06-14T03:48:17;9.00;;;6.10;;
3755;SDS011;1893;52.526;13.360;2023-06-14T03:50:43;9.00;;;5.37;;
3755;SDS011;1893;52.526;13.360;2023-06-14T03:53:09;10.30;;;6.40;;
3755;SDS011;1893;52.526;13.360;2023-06-14T03:55:35;10.93;;;6.10;;
3755;SDS011;1893;52.526;13.360;2023-06-14T03:58:02;6.53;;;5.80;;
3755;SDS011;1893;52.526;13.360;2023-06-14T04:00:28;7.80;;;7.00;;
3755;SDS011;1893;52.526;13.360;2023-06-14T04:02:54;8.67;;;6.13;;
3755;SDS011;1893;52.526;13.360;2023-06-14T04:05:19;7.10;;;6.40;;
3755;SDS011;1893;52.526;13.360;2023-06-14T04:07:45;16.90;;;7.73;;
3755;SDS011;1893;52.526;13.360;2023-06-14T04:10:13;7.20;;;5.60;;
3755;SDS011;1893;52.526;13.360;2023-06-14T04:12:40;9.23;;;6.50;;
3755;SDS011;1893;52.526;13.360;2023-06-14T04:15:06;9.10;;;6.60;;
3755;SDS011;1893;52.526;13.360;2023-06-14T04:17:33;6.87;;;5.80;;
3755;SDS011;1893;52.526;13.360;2023-06-14T04:20:00;9.40;;;6.87;;
3755;SDS011;1893;52.526;13.360;2023-06-14T04:22:28;7.33;;;6.50;;
3755;SDS011;1893;52.526;13.360;2023-06-14T04:24:55;6.27;;;5.67;;
3755;SDS011;1893;52.526;13.360;2023-06-14T04:27:25;7.20;;;6.40;;
3755;SDS011;1893;52.526;13.360;2023-06-14T04:29:54;8.90;;;6.67;;
3755;SDS011;1893;52.526;13.360;2023-06-14T04:32:27;9.20;;;6.57;;
3755;SDS011;1893;52.526;13.360;2023-06-14T04:35:03;7.83;;;6.40;;
3755;SDS011;1893;52.526;13.360;2023-06-14T04:37:30;11.93;;;10.70;;
3755;SDS011;1893;52.526;13.360;2023-06-14T04:39:56;23.07;;;16.03;;
3755;SDS011;1893;52.526;13.360;2023-06-14T04:42:22;9.03;;;8.00;;
3755;SDS011;1893;52.526;13.360;2023-06-14T04:44:56;8.27;;;7.40;;
3755;SDS011;1893;52.526;13.360;2023-06-14T04:47:22;6.83;;;6.00;;
3755;SDS011;1893;52.526;13.360;2023-06-14T04:49:50;9.23;;;7.23;;
3755;SDS011;1893;52.526;13.360;2023-06-14T04:52:18;9.53;;;6.90;;
3755;SDS011;1893;52.526;13.360;2023-06-14T04:54:45;9.70;;;6.90;;
3755;SDS011;1893;52.526;13.360;2023-06-14T04:57:11;7.83;;;6.90;;
3755;SDS011;1893;52.526;13.360;2023-06-14T04:59:39;13.93;;;7.40;;
3755;SDS011;1893;52.526;13.360;2023-06-14T05:02:05;11.97;;;7.23;;
3755;SDS011;1893;52.526;13.360;2023-06-14T05:04:32;7.50;;;5.50;;
3755;SDS011;1893;52.526;13.360;2023-06-14T05:06:57;9.30;;;7.43;;
3755;SDS011;1893;52.526;13.360;2023-06-14T05:09:23;8.50;;;6.10;;
3755;SDS011;1893;52.526;13.360;2023-06-14T05:11:49;12.20;;;8.00;;
3755;SDS011;1893;52.526;13.360;2023-06-14T05:14:15;7.87;;;7.07;;
3755;SDS011;1893;52.526;13.360;2023-06-14T05:16:40;6.97;;;6.20;;
3755;SDS011;1893;52.526;13.360;2023-06-14T05:19:06;8.43;;;7.23;;
3755;SDS011;1893;52.526;13.360;2023-06-14T05:21:32;8.03;;;6.90;;
3755;SDS011;1893;52.526;13.360;2023-06-14T05:24:00;11.60;;;7.40;;
3755;SDS011;1893;52.526;13.360;2023-06-14T05:26:26;17.50;;;8.63;;
3755;SDS011;1893;52.526;13.360;2023-06-14T05:28:58;10.33;;;7.90;;
3755;SDS011;1893;52.526;13.360;2023-06-14T05:31:25;8.50;;;6.53;;
3755;SDS011;1893;52.526;13.360;2023-06-14T05:33:52;8.13;;;7.33;;
3755;SDS011;1893;52.526;13.360;2023-06-14T05:36:18;9.60;;;7.13;;
3755;SDS011;1893;52.526;13.360;2023-06-14T05:38:47;10.50;;;7.07;;
3755;SDS011;1893;52.526;13.360;2023-06-14T05:41:13;8.60;;;7.10;;
3755;SDS011;1893;52.526;13.360;2023-06-14T05:43:39;8.97;;;7.13;;
3755;SDS011;1893;52.526;13.360;2023-06-14T05:46:04;10.10;;;7.27;;
3755;SDS011;1893;52.526;13.360;2023-06-14T05:48:30;7.63;;;6.93;;
3755;SDS011;1893;52.526;13.360;2023-06-14T05:50:56;46.27;;;8.43;;
3755;SDS011;1893;52.526;13.360;2023-06-14T05:53:22;9.03;;;7.00;;
3755;SDS011;1893;52.526;13.360;2023-06-14T05:55:48;8.67;;;6.87;;
3755;SDS011;1893;52.526;13.360;2023-06-14T05:58:15;10.60;;;7.63;;
3755;SDS011;1893;52.526;13.360;2023-06-14T06:00:41;9.87;;;7.60;;
3755;SDS011;1893;52.526;13.360;2023-06-14T06:03:07;7.50;;;6.70;;
3755;SDS011;1893;52.526;13.360;2023-06-14T06:05:34;19.60;;;8.07;;
3755;SDS011;1893;52.526;13.360;2023-06-14T06:07:59;7.73;;;6.67;;
3755;SDS011;1893;52.526;13.360;2023-06-14T06:10:25;13.70;;;7.20;;
3755;SDS011;1893;52.526;13.360;2023-06-14T06:12:51;11.93;;;6.57;;
3755;SDS011;1893;52.526;13.360;2023-06-14T06:15:17;8.37;;;7.47;;
3755;SDS011;1893;52.526;13.360;2023-06-14T06:17:43;8.17;;;6.77;;
3755;SDS011;1893;52.526;13.360;2023-06-14T06:20:09;7.63;;;6.93;;
3755;SDS011;1893;52.526;13.360;2023-06-14T06:22:36;9.03;;;6.30;;
3755;SDS011;1893;52.526;13.360;2023-06-14T06:25:02;8.33;;;6.73;;
3755;SDS011;1893;52.526;13.360;2023-06-14T06:27:28;6.07;;;5.57;;
3755;SDS011;1893;52.526;13.360;2023-06-14T06:29:54;8.93;;;7.23;;
3755;SDS011;1893;52.526;13.360;2023-06-14T06:32:20;12.13;;;6.63;;
3755;SDS011;1893;52.526;13.360;2023-06-14T06:34:45;10.30;;;7.13;;
3755;SDS011;1893;52.526;13.360;2023-06-14T06:37:12;11.03;;;6.70;;
3755;SDS011;1893;52.526;13.360;2023-06-14T06:39:38;6.60;;;6.00;;
3755;SDS011;1893;52.526;13.360;2023-06-14T06:42:04;11.20;;;6.77;;
3755;SDS011;1893;52.526;13.360;2023-06-14T06:44:30;11.00;;;6.27;;
3755;SDS011;1893;52.526;13.360;2023-06-14T06:46:57;7.47;;;6.70;;
3755;SDS011;1893;52.526;13.360;2023-06-14T06:49:22;7.67;;;6.20;;
3755;SDS011;1893;52.526;13.360;2023-06-14T06:52:00;9.57;;;6.50;;
3755;SDS011;1893;52.526;13.360;2023-06-14T06:54:30;6.53;;;5.50;;
3755;SDS011;1893;52.526;13.360;2023-06-14T06:56:56;7.27;;;6.17;;
3755;SDS011;1893;52.526;13.360;2023-06-14T06:59:22;8.83;;;6.33;;
3755;SDS011;1893;52.526;13.360;2023-06-14T07:01:48;9.60;;;6.33;;
3755;SDS011;1893;52.526;13.360;2023-06-14T07:04:14;6.93;;;6.23;;
3755;SDS011;1893;52.526;13.360;2023-06-14T07:06:41;10.20;;;6.40;;
3755;SDS011;1893;52.526;13.360;2023-06-14T07:09:07;12.03;;;7.17;;
3755;SDS011;1893;52.526;13.360;2023-06-14T07:11:37;11.60;;;7.40;;
3755;SDS011;1893;52.526;13.360;2023-06-14T07:14:06;8.70;;;5.77;;
3755;SDS011;1893;52.526;13.360;2023-06-14T07:16:32;8.27;;;6.30;;
3755;SDS011;1893;52.526;13.360;2023-06-14T07:18:58;11.20;;;6.20;;
3755;SDS011;1893;52.526;13.360;2023-06-14T07:21:24;8.83;;;6.37;;
3755;SDS011;1893;52.526;13.360;2023-06-14T07:23:52;10.90;;;6.47;;
3755;SDS011;1893;52.526;13.360;2023-06-14T07:26:18;7.50;;;6.80;;
3755;SDS011;1893;52.526;13.360;2023-06-14T07:28:44;6.97;;;6.27;;
3755;SDS011;1893;52.526;13.360;2023-06-14T07:31:10;7.93;;;5.83;;
3755;SDS011;1893;52.526;13.360;2023-06-14T07:33:36;8.30;;;6.40;;
3755;SDS011;1893;52.526;13.360;2023-06-14T07:36:01;8.40;;;5.60;;
3755;SDS011;1893;52.526;13.360;2023-06-14T07:38:27;8.03;;;5.80;;
3755;SDS011;1893;52.526;13.360;2023-06-14T07:40:53;11.47;;;5.47;;
3755;SDS011;1893;52.526;13.360;2023-06-14T07:43:19;16.50;;;6.43;;
3755;SDS011;1893;52.526;13.360;2023-06-14T07:45:44;8.13;;;5.07;;
3755;SDS011;1893;52.526;13.360;2023-06-14T07:48:10;8.53;;;6.90;;
3755;SDS011;1893;52.526;13.360;2023-06-14T07:50:36;7.83;;;5.47;;
3755;SDS011;1893;52.526;13.360;2023-06-14T07:53:02;13.33;;;6.67;;
3755;SDS011;1893;52.526;13.360;2023-06-14T07:55:27;6.93;;;5.23;;
3755;SDS011;1893;52.526;13.360;2023-06-14T07:57:53;5.67;;;5.17;;
3755;SDS011;1893;52.526;13.360;2023-06-14T08:00:19;6.50;;;5.40;;
3755;SDS011;1893;52.526;13.360;2023-06-14T08:02:45;9.13;;;4.80;;
3755;SDS011;1893;52.526;13.360;2023-06-14T08:05:11;5.60;;;4.67;;
3755;SDS011;1893;52.526;13.360;2023-06-14T08:07:38;19.40;;;5.27;;
3755;SDS011;1893;52.526;13.360;2023-06-14T08:10:05;7.73;;;4.97;;
3755;SDS011;1893;52.526;13.360;2023-06-14T08:12:31;11.40;;;5.03;;
3755;SDS011;1893;52.526;13.360;2023-06-14T08:14:57;7.47;;;4.90;;
3755;SDS011;1893;52.526;13.360;2023-06-14T08:17:23;5.07;;;4.30;;
3755;SDS011;1893;52.526;13.360;2023-06-14T08:19:48;6.33;;;5.03;;
3755;SDS011;1893;52.526;13.360;2023-06-14T08:22:14;6.63;;;5.30;;
3755;SDS011;1893;52.526;13.360;2023-06-14T08:24:40;7.17;;;5.20;;
3755;SDS011;1893;52.526;13.360;2023-06-14T08:27:06;5.13;;;4.73;;
3755;SDS011;1893;52.526;13.360;2023-06-14T08:29:32;8.20;;;4.53;;
3755;SDS011;1893;52.526;13.360;2023-06-14T08:31:57;5.43;;;4.93;;
3755;SDS011;1893;52.526;13.360;2023-06-14T08:34:23;5.47;;;4.37;;
3755;SDS011;1893;52.526;13.360;2023-06-14T08:36:52;9.13;;;4.87;;
3755;SDS011;1893;52.526;13.360;2023-06-14T08:39:18;8.80;;;5.10;;
3755;SDS011;1893;52.526;13.360;2023-06-14T08:41:46;5.70;;;4.53;;
3755;SDS011;1893;52.526;13.360;2023-06-14T08:44:15;6.47;;;4.00;;
3755;SDS011;1893;52.526;13.360;2023-06-14T08:46:44;7.60;;;4.70;;
3755;SDS011;1893;52.526;13.360;2023-06-14T08:49:12;4.83;;;4.00;;
3755;SDS011;1893;52.526;13.360;2023-06-14T08:51:39;5.40;;;3.70;;
3755;SDS011;1893;52.526;13.360;2023-06-14T08:54:06;5.10;;;4.20;;
3755;SDS011;1893;52.526;13.360;2023-06-14T08:56:32;5.83;;;4.23;;
3755;SDS011;1893;52.526;13.360;2023-06-14T08:58:59;11.10;;;5.47;;
3755;SDS011;1893;52.526;13.360;2023-06-14T09:01:34;5.63;;;5.07;;
3755;SDS011;1893;52.526;13.360;2023-06-14T09:04:01;7.33;;;4.60;;
3755;SDS011;1893;52.526;13.360;2023-06-14T09:06:30;5.07;;;4.63;;
3755;SDS011;1893;52.526;13.360;2023-06-14T09:08:56;9.50;;;5.50;;
3755;SDS011;1893;52.526;13.360;2023-06-14T09:11:22;6.30;;;4.60;;
3755;SDS011;1893;52.526;13.360;2023-06-14T09:13:49;4.73;;;4.00;;
3755;SDS011;1893;52.526;13.360;2023-06-14T09:16:15;4.00;;;3.70;;
3755;SDS011;1893;52.526;13.360;2023-06-14T09:18:42;5.70;;;4.30;;
3755;SDS011;1893;52.526;13.360;2023-06-14T09:21:10;7.63;;;3.90;;
3755;SDS011;1893;52.526;13.360;2023-06-14T09:23:37;4.33;;;3.93;;
3755;SDS011;1893;52.526;13.360;2023-06-14T09:26:10;5.97;;;4.07;;
3755;SDS011;1893;52.526;13.360;2023-06-14T09:28:41;9.10;;;4.27;;
3755;SDS011;1893;52.526;13.360;2023-06-14T09:31:13;6.50;;;5.20;;
3755;SDS011;1893;52.526;13.360;2023-06-14T09:33:44;4.90;;;4.37;;
3755;SDS011;1893;52.526;13.360;2023-06-14T09:36:17;5.13;;;4.63;;
3755;SDS011;1893;52.526;13.360;2023-06-14T09:38:55;4.40;;;3.90;;
3755;SDS011;1893;52.526;13.360;2023-06-14T09:41:35;4.70;;;4.27;;
3755;SDS011;1893;52.526;13.360;2023-06-14T09:44:01;12.70;;;5.00;;
3755;SDS011;1893;52.526;13.360;2023-06-14T09:46:28;6.57;;;4.37;;
3755;SDS011;1893;52.526;13.360;2023-06-14T09:48:57;7.40;;;5.13;;
3755;SDS011;1893;52.526;13.360;2023-06-14T09:51:24;6.03;;;4.13;;
3755;SDS011;1893;52.526;13.360;2023-06-14T09:53:51;4.30;;;3.93;;
3755;SDS011;1893;52.526;13.360;2023-06-14T09:56:27;6.03;;;5.13;;
3755;SDS011;1893;52.526;13.360;2023-06-14T09:58:56;4.93;;;4.43;;
3755;SDS011;1893;52.526;13.360;2023-06-14T10:01:24;6.50;;;4.43;;
3755;SDS011;1893;52.526;13.360;2023-06-14T10:03:53;4.93;;;3.70;;
3755;SDS011;1893;52.526;13.360;2023-06-14T10:06:24;7.13;;;4.90;;
3755;SDS011;1893;52.526;13.360;2023-06-14T10:08:56;6.80;;;4.13;;
3755;SDS011;1893;52.526;13.360;2023-06-14T10:11:24;6.63;;;3.83;;
3755;SDS011;1893;52.526;13.360;2023-06-14T10:13:51;5.87;;;3.90;;
3755;SDS011;1893;52.526;13.360;2023-06-14T10:24:06;6.20;;;4.30;;
3755;SDS011;1893;52.526;13.360;2023-06-14T10:26:35;7.93;;;4.53;;
3755;SDS011;1893;52.526;13.360;2023-06-14T10:29:15;5.40;;;4.10;;
3755;SDS011;1893;52.526;13.360;2023-06-14T10:34:11;5.27;;;3.60;;
3755;SDS011;1893;52.526;13.360;2023-06-14T10:36:38;8.23;;;4.47;;
3755;SDS011;1893;52.526;13.360;2023-06-14T10:39:08;7.40;;;4.90;;
3755;SDS011;1893;52.526;13.360;2023-06-14T10:41:40;9.50;;;4.40;;
3755;SDS011;1893;52.526;13.360;2023-06-14T10:46:38;8.20;;;4.90;;
3755;SDS011;1893;52.526;13.360;2023-06-14T10:49:16;7.30;;;4.37;;
3755;SDS011;1893;52.526;13.360;2023-06-14T10:51:46;4.93;;;4.43;;
3755;SDS011;1893;52.526;13.360;2023-06-14T10:54:16;6.63;;;4.67;;
3755;SDS011;1893;52.526;13.360;2023-06-14T10:56:52;8.33;;;4.73;;
3755;SDS011;1893;52.526;13.360;2023-06-14T10:59:18;9.47;;;4.70;;
3755;SDS011;1893;52.526;13.360;2023-06-14T11:01:57;6.67;;;3.83;;
3755;SDS011;1893;52.526;13.360;2023-06-14T11:04:54;5.43;;;3.47;;
3755;SDS011;1893;52.526;13.360;2023-06-14T11:10:38;6.17;;;3.80;;
3755;SDS011;1893;52.526;13.360;2023-06-14T11:13:05;6.40;;;3.70;;
3755;SDS011;1893;52.526;13.360;2023-06-14T11:15:31;6.23;;;3.93;;
3755;SDS011;1893;52.526;13.360;2023-06-14T11:18:02;5.23;;;3.93;;
3755;SDS011;1893;52.526;13.360;2023-06-14T11:20:30;5.83;;;4.40;;
3755;SDS011;1893;52.526;13.360;2023-06-14T11:22:56;5.63;;;4.70;;
3755;SDS011;1893;52.526;13.360;2023-06-14T11:25:23;6.13;;;3.80;;
3755;SDS011;1893;52.526;13.360;2023-06-14T11:27:49;4.57;;;3.63;;
3755;SDS011;1893;52.526;13.360;2023-06-14T11:30:15;6.20;;;3.87;;
3755;SDS011;1893;52.526;13.360;2023-06-14T11:32:41;4.33;;;3.67;;
3755;SDS011;1893;52.526;13.360;2023-06-14T11:35:07;6.33;;;4.10;;
3755;SDS011;1893;52.526;13.360;2023-06-14T11:37:35;9.00;;;3.27;;
3755;SDS011;1893;52.526;13.360;2023-06-14T11:40:02;6.57;;;3.70;;
3755;SDS011;1893;52.526;13.360;2023-06-14T11:42:32;5.03;;;3.93;;
3755;SDS011;1893;52.526;13.360;2023-06-14T11:44:58;11.53;;;4.67;;
3755;SDS011;1893;52.526;13.360;2023-06-14T11:47:24;9.17;;;3.40;;
3755;SDS011;1893;52.526;13.360;2023-06-14T11:49:56;7.47;;;3.87;;
3755;SDS011;1893;52.526;13.360;2023-06-14T11:52:23;7.23;;;4.03;;
3755;SDS011;1893;52.526;13.360;2023-06-14T11:54:49;7.53;;;3.57;;
3755;SDS011;1893;52.526;13.360;2023-06-14T11:57:15;7.67;;;3.93;;
3755;SDS011;1893;52.526;13.360;2023-06-14T11:59:43;6.27;;;3.47;;
3755;SDS011;1893;52.526;13.360;2023-06-14T12:02:09;7.20;;;4.20;;
3755;SDS011;1893;52.526;13.360;2023-06-14T12:04:40;7.37;;;4.23;;
3755;SDS011;1893;52.526;13.360;2023-06-14T12:07:13;7.03;;;4.10;;
3755;SDS011;1893;52.526;13.360;2023-06-14T12:10:26;8.00;;;4.17;;
3755;SDS011;1893;52.526;13.360;2023-06-14T12:12:26;5.20;;;3.80;;
3755;SDS011;1893;52.526;13.360;2023-06-14T12:14:52;6.13;;;3.50;;
3755;SDS011;1893;52.526;13.360;2023-06-14T12:17:18;5.20;;;3.60;;
3755;SDS011;1893;52.526;13.360;2023-06-14T12:19:45;4.93;;;3.50;;
3755;SDS011;1893;52.526;13.360;2023-06-14T12:22:14;10.20;;;3.80;;
3755;SDS011;1893;52.526;13.360;2023-06-14T12:24:43;6.47;;;3.93;;
3755;SDS011;1893;52.526;13.360;2023-06-14T12:27:09;5.77;;;3.23;;
3755;SDS011;1893;52.526;13.360;2023-06-14T12:29:37;5.30;;;3.60;;
3755;SDS011;1893;52.526;13.360;2023-06-14T12:32:02;10.03;;;3.57;;
3755;SDS011;1893;52.526;13.360;2023-06-14T12:34:28;5.87;;;4.80;;
3755;SDS011;1893;52.526;13.360;2023-06-14T12:36:56;5.27;;;3.10;;
3755;SDS011;1893;52.526;13.360;2023-06-14T12:39:22;5.63;;;4.27;;
3755;SDS011;1893;52.526;13.360;2023-06-14T12:41:48;5.13;;;3.43;;
3755;SDS011;1893;52.526;13.360;2023-06-14T12:44:14;3.67;;;3.37;;
3755;SDS011;1893;52.526;13.360;2023-06-14T12:46:41;8.27;;;3.60;;
3755;SDS011;1893;52.526;13.360;2023-06-14T12:49:08;5.70;;;3.90;;
3755;SDS011;1893;52.526;13.360;2023-06-14T12:51:37;4.13;;;3.53;;
3755;SDS011;1893;52.526;13.360;2023-06-14T12:54:03;5.40;;;3.47;;
3755;SDS011;1893;52.526;13.360;2023-06-14T12:56:29;9.30;;;3.63;;
3755;SDS011;1893;52.526;13.360;2023-06-14T12:58:55;4.80;;;3.63;;
3755;SDS011;1893;52.526;13.360;2023-06-14T13:01:21;7.53;;;3.60;;
3755;SDS011;1893;52.526;13.360;2023-06-14T13:03:47;6.17;;;3.30;;
3755;SDS011;1893;52.526;13.360;2023-06-14T13:06:12;5.23;;;3.93;;
3755;SDS011;1893;52.526;13.360;2023-06-14T13:08:38;9.70;;;3.37;;
3755;SDS011;1893;52.526;13.360;2023-06-14T13:11:04;9.07;;;3.80;;
3755;SDS011;1893;52.526;13.360;2023-06-14T13:13:30;4.63;;;2.97;;
3755;SDS011;1893;52.526;13.360;2023-06-14T13:15:55;4.63;;;3.63;;
3755;SDS011;1893;52.526;13.360;2023-06-14T13:18:21;9.50;;;3.90;;
3755;SDS011;1893;52.526;13.360;2023-06-14T13:20:47;4.67;;;3.27;;
3755;SDS011;1893;52.526;13.360;2023-06-14T13:23:13;4.17;;;3.40;;
3755;SDS011;1893;52.526;13.360;2023-06-14T13:25:39;5.30;;;4.00;;
3755;SDS011;1893;52.526;13.360;2023-06-14T13:28:05;9.57;;;4.50;;
3755;SDS011;1893;52.526;13.360;2023-06-14T13:30:31;9.13;;;3.77;;
3755;SDS011;1893;52.526;13.360;2023-06-14T13:32:58;7.00;;;3.30;;
3755;SDS011;1893;52.526;13.360;2023-06-14T13:35:24;5.70;;;3.57;;
3755;SDS011;1893;52.526;13.360;2023-06-14T13:37:50;5.77;;;3.40;;
3755;SDS011;1893;52.526;13.360;2023-06-14T13:40:16;3.47;;;2.93;;
3755;SDS011;1893;52.526;13.360;2023-06-14T13:42:42;10.20;;;3.40;;
3755;SDS011;1893;52.526;13.360;2023-06-14T13:45:08;5.20;;;3.37;;
3755;SDS011;1893;52.526;13.360;2023-06-14T13:47:35;4.80;;;3.40;;
3755;SDS011;1893;52.526;13.360;2023-06-14T13:50:01;5.37;;;3.50;;
3755;SDS011;1893;52.526;13.360;2023-06-14T13:52:28;6.77;;;3.60;;
3755;SDS011;1893;52.526;13.360;2023-06-14T13:54:53;4.00;;;3.20;;
3755;SDS011;1893;52.526;13.360;2023-06-14T13:57:19;5.27;;;3.93;;
3755;SDS011;1893;52.526;13.360;2023-06-14T13:59:45;4.97;;;3.97;;
3755;SDS011;1893;52.526;13.360;2023-06-14T14:02:10;9.20;;;3.27;;
3755;SDS011;1893;52.526;13.360;2023-06-14T14:04:37;4.90;;;3.40;;
3755;SDS011;1893;52.526;13.360;2023-06-14T14:07:04;4.43;;;3.73;;
3755;SDS011;1893;52.526;13.360;2023-06-14T14:09:34;15.33;;;4.30;;
3755;SDS011;1893;52.526;13.360;2023-06-14T14:12:00;3.40;;;3.10;;
3755;SDS011;1893;52.526;13.360;2023-06-14T14:14:29;4.93;;;3.20;;
3755;SDS011;1893;52.526;13.360;2023-06-14T14:16:57;7.63;;;3.77;;
3755;SDS011;1893;52.526;13.360;2023-06-14T14:19:23;3.63;;;2.77;;
3755;SDS011;1893;52.526;13.360;2023-06-14T14:21:49;6.30;;;3.30;;
3755;SDS011;1893;52.526;13.360;2023-06-14T14:24:15;9.03;;;4.07;;
3755;SDS011;1893;52.526;13.360;2023-06-14T14:26:41;5.80;;;3.90;;
3755;SDS011;1893;52.526;13.360;2023-06-14T14:29:07;6.83;;;3.97;;
3755;SDS011;1893;52.526;13.360;2023-06-14T14:31:33;8.20;;;3.73;;
3755;SDS011;1893;52.526;13.360;2023-06-14T14:33:59;7.70;;;4.30;;
3755;SDS011;1893;52.526;13.360;2023-06-14T14:36:24;7.97;;;4.00;;
3755;SDS011;1893;52.526;13.360;2023-06-14T14:38:50;8.50;;;4.53;;
3755;SDS011;1893;52.526;13.360;2023-06-14T14:41:16;6.77;;;4.30;;
3755;SDS011;1893;52.526;13.360;2023-06-14T14:43:42;8.87;;;4.10;;
3755;SDS011;1893;52.526;13.360;2023-06-14T14:46:08;8.03;;;4.23;;
3755;SDS011;1893;52.526;13.360;2023-06-14T14:48:35;6.70;;;3.73;;
3755;SDS011;1893;52.526;13.360;2023-06-14T14:51:01;11.90;;;3.77;;
3755;SDS011;1893;52.526;13.360;2023-06-14T14:53:27;6.27;;;3.80;;
3755;SDS011;1893;52.526;13.360;2023-06-14T14:55:53;4.60;;;3.50;;
3755;SDS011;1893;52.526;13.360;2023-06-14T14:58:19;5.50;;;3.87;;
3755;SDS011;1893;52.526;13.360;2023-06-14T15:00:47;13.13;;;2.93;;
3755;SDS011;1893;52.526;13.360;2023-06-14T15:03:13;4.40;;;3.33;;
3755;SDS011;1893;52.526;13.360;2023-06-14T15:05:39;5.70;;;3.50;;
3755;SDS011;1893;52.526;13.360;2023-06-14T15:08:06;5.77;;;3.47;;
3755;SDS011;1893;52.526;13.360;2023-06-14T15:10:40;8.73;;;3.97;;
3755;SDS011;1893;52.526;13.360;2023-06-14T15:13:09;7.17;;;3.60;;
3755;SDS011;1893;52.526;13.360;2023-06-14T15:15:35;7.50;;;3.17;;
3755;SDS011;1893;52.526;13.360;2023-06-14T15:18:02;6.70;;;3.87;;
3755;SDS011;1893;52.526;13.360;2023-06-14T15:20:28;7.13;;;3.50;;
3755;SDS011;1893;52.526;13.360;2023-06-14T15:22:53;5.00;;;3.70;;